San Carlos, CA

8:31 PM PDT on September 16, 2014 (GMT -0700)
San Francisco International | Change Station
CLOSE
Current Station
Airport
Location: San Francisco,
Elevation: 16 ft
Nearby Weather Stations

Elev 16 ft 37.62 °N, 122.37 °W | Updated 35 minutes ago

Partly Cloudy
Partly Cloudy
68 °F
Feels Like 68 °F
N
16
Wind Variable Wind from West

Today
High -- | Low -- °F
--% Chance of Precip.
Yesterday
High -- | Low -- °F
Precip. -- in
6:51 AM 7:15 PM
Last Quarter, 40% visible
Pressure 29.83 in
Visibility 10.0 miles
Clouds Few 1000 ft
Mostly Cloudy 15000 ft
Dew Point 60 °F
Humidity 76%
Rainfall 0.00 in
Snow Depth 0 in , 1 in , 0 in
UV 0 out of 12
Pollen 5.20 out of 12
Air Quality Not available.
Flu Activity Not available.
METAR KSFO 170256Z 27014KT 10SM FEW010 BKN150 20/16 A2982 RMK AO2 SLP099 T02000156 53002

More Conditions Fewer Conditions

Pressure 29.83 in
Visibility 10.0 miles
Clouds Few 1000 ft
Mostly Cloudy 15000 ft
Dew Point 60 °F
Humidity 76%
Rainfall 0.00 in
Snow Depth 0 in , 1 in , 0 in
UV 0 out of 12
Pollen 5.20 out of 12
Air Quality Not available.
Flu Activity Not available.
METAR KSFO 170256Z 27014KT 10SM FEW010 BKN150 20/16 A2982 RMK AO2 SLP099 T02000156 53002

More Conditions Fewer Conditions

10-Day Weather Forecast

Almanac

Astronomy

Sep. 16, 2014 Rise Set
Actual Time 6:51 AM PDT 7:15 PM PDT
Civil Twilight 6:25 AM PDT 7:41 PM PDT
Nautical Twilight 5:54 AM PDT 8:11 PM PDT
Astronomical Twilight 5:23 AM PDT 8:43 PM PDT
Moon 12:11 AM PDT (9/16) 2:38 PM PDT (9/16)
Length of Visible Light 13h 15m
Length of Day
12h 23m
Tomorrow will be 2m 23s shorter.
Last Quarter, 40% of the Moon is Illuminated
Today
Last Quarter
Sep 24
New
Oct 1
First Quarter
Oct 8
Full
Oct 15
Last Quarter

Today's Extremes

State Highs State Lows

Community

WunderPhotos

Upload Photos

1,753,954 photos uploaded!

Nearby

Air Quality

  Air Quality AQ Index Pollutant
Yesterday Good
PM2.5
Yesterday Good
OZONE
Tuesday Good
PM2.5
Wednesday Good
OZONE
Thursday Good
OZONE
Friday Good
OZONE
Saturday Good
OZONE
Sunday Good
OZONE

Snow Depth

Station Depth Elevation
Monitor Pass 0 in 8350 ft
Summit Meadow 1 in 9122 ft
Leavitt Meadows 0 in 7200 ft
Hagan's Meadow 0 in 8000 ft
Echo Peak 0 in 7800 ft

Earthquake Activity

City Distance Mag. Time & Date
Cobb, California 92 miles 2.7 1:23 PM PDT
2014-09-16
Cobb, California 96 miles 2.7 11:07 AM PDT
2014-09-14
Minimum magnitude displayed is 2.5.

Coastal Water Temperatures

Place Temperature
No Stations Reporting

Nearby Weather Stations